sensor_id;sensor_type;location;lat;lon;timestamp;P1;durP1;ratioP1;P2;durP2;ratioP2
78406;SDS011;67692;51.074;-1.790;2023-04-03T00:01:53;10.20;;;2.15;;
78406;SDS011;67692;51.074;-1.790;2023-04-03T00:04:20;7.15;;;1.80;;
78406;SDS011;67692;51.074;-1.790;2023-04-03T00:06:47;4.57;;;1.38;;
78406;SDS011;67692;51.074;-1.790;2023-04-03T00:09:13;4.70;;;1.50;;
78406;SDS011;67692;51.074;-1.790;2023-04-03T00:11:41;4.63;;;1.38;;
78406;SDS011;67692;51.074;-1.790;2023-04-03T00:14:08;6.40;;;1.58;;
78406;SDS011;67692;51.074;-1.790;2023-04-03T00:16:34;6.43;;;1.52;;
78406;SDS011;67692;51.074;-1.790;2023-04-03T00:19:01;6.75;;;1.45;;
78406;SDS011;67692;51.074;-1.790;2023-04-03T00:21:28;4.50;;;1.70;;
78406;SDS011;67692;51.074;-1.790;2023-04-03T00:23:54;5.90;;;2.03;;
78406;SDS011;67692;51.074;-1.790;2023-04-03T00:26:21;10.10;;;1.73;;
78406;SDS011;67692;51.074;-1.790;2023-04-03T00:28:49;6.65;;;1.42;;
78406;SDS011;67692;51.074;-1.790;2023-04-03T00:31:15;6.25;;;1.30;;
78406;SDS011;67692;51.074;-1.790;2023-04-03T00:33:42;3.80;;;1.33;;
78406;SDS011;67692;51.074;-1.790;2023-04-03T00:36:09;13.15;;;2.10;;
78406;SDS011;67692;51.074;-1.790;2023-04-03T00:38:36;4.90;;;1.33;;
78406;SDS011;67692;51.074;-1.790;2023-04-03T00:41:03;6.40;;;1.63;;
78406;SDS011;67692;51.074;-1.790;2023-04-03T00:43:30;7.25;;;1.90;;
78406;SDS011;67692;51.074;-1.790;2023-04-03T00:45:58;7.03;;;1.30;;
78406;SDS011;67692;51.074;-1.790;2023-04-03T00:48:26;8.07;;;2.08;;
78406;SDS011;67692;51.074;-1.790;2023-04-03T00:50:55;5.60;;;1.60;;
78406;SDS011;67692;51.074;-1.790;2023-04-03T00:53:24;6.63;;;1.33;;
78406;SDS011;67692;51.074;-1.790;2023-04-03T00:55:54;5.88;;;1.42;;
78406;SDS011;67692;51.074;-1.790;2023-04-03T00:58:23;7.75;;;1.80;;
78406;SDS011;67692;51.074;-1.790;2023-04-03T01:00:55;10.85;;;1.80;;
78406;SDS011;67692;51.074;-1.790;2023-04-03T01:03:29;6.47;;;1.45;;
78406;SDS011;67692;51.074;-1.790;2023-04-03T01:05:56;6.40;;;1.52;;
78406;SDS011;67692;51.074;-1.790;2023-04-03T01:08:23;6.00;;;1.88;;
78406;SDS011;67692;51.074;-1.790;2023-04-03T01:10:50;4.53;;;1.10;;
78406;SDS011;67692;51.074;-1.790;2023-04-03T01:13:18;5.15;;;1.60;;
78406;SDS011;67692;51.074;-1.790;2023-04-03T01:15:47;6.82;;;1.70;;
78406;SDS011;67692;51.074;-1.790;2023-04-03T01:18:15;9.70;;;2.22;;
78406;SDS011;67692;51.074;-1.790;2023-04-03T01:23:39;4.55;;;1.67;;
78406;SDS011;67692;51.074;-1.790;2023-04-03T01:26:15;7.20;;;1.77;;
78406;SDS011;67692;51.074;-1.790;2023-04-03T01:28:42;4.13;;;1.60;;
78406;SDS011;67692;51.074;-1.790;2023-04-03T01:31:12;4.68;;;2.20;;
78406;SDS011;67692;51.074;-1.790;2023-04-03T01:33:45;6.25;;;1.42;;
78406;SDS011;67692;51.074;-1.790;2023-04-03T01:36:13;7.68;;;1.52;;
78406;SDS011;67692;51.074;-1.790;2023-04-03T01:38:41;6.88;;;1.70;;
78406;SDS011;67692;51.074;-1.790;2023-04-03T01:41:08;9.20;;;1.83;;
78406;SDS011;67692;51.074;-1.790;2023-04-03T01:43:34;4.70;;;1.73;;
78406;SDS011;67692;51.074;-1.790;2023-04-03T01:46:01;8.63;;;2.05;;
78406;SDS011;67692;51.074;-1.790;2023-04-03T01:48:28;6.10;;;1.77;;
78406;SDS011;67692;51.074;-1.790;2023-04-03T01:50:55;6.15;;;1.70;;
78406;SDS011;67692;51.074;-1.790;2023-04-03T01:53:22;6.20;;;1.55;;
78406;SDS011;67692;51.074;-1.790;2023-04-03T01:55:49;7.95;;;1.67;;
78406;SDS011;67692;51.074;-1.790;2023-04-03T01:58:15;4.00;;;1.38;;
78406;SDS011;67692;51.074;-1.790;2023-04-03T02:00:42;5.82;;;1.52;;
78406;SDS011;67692;51.074;-1.790;2023-04-03T02:03:09;6.88;;;1.65;;
78406;SDS011;67692;51.074;-1.790;2023-04-03T02:05:35;9.38;;;1.73;;
78406;SDS011;67692;51.074;-1.790;2023-04-03T02:08:03;6.07;;;1.83;;
78406;SDS011;67692;51.074;-1.790;2023-04-03T02:10:30;7.30;;;1.65;;
78406;SDS011;67692;51.074;-1.790;2023-04-03T02:12:57;9.57;;;1.67;;
78406;SDS011;67692;51.074;-1.790;2023-04-03T02:15:24;9.63;;;2.20;;
78406;SDS011;67692;51.074;-1.790;2023-04-03T02:17:51;5.47;;;1.63;;
78406;SDS011;67692;51.074;-1.790;2023-04-03T02:20:18;4.53;;;1.80;;
78406;SDS011;67692;51.074;-1.790;2023-04-03T02:22:44;7.38;;;1.60;;
78406;SDS011;67692;51.074;-1.790;2023-04-03T02:25:13;7.53;;;1.80;;
78406;SDS011;67692;51.074;-1.790;2023-04-03T02:27:40;7.22;;;2.10;;
78406;SDS011;67692;51.074;-1.790;2023-04-03T02:30:07;7.85;;;1.65;;
78406;SDS011;67692;51.074;-1.790;2023-04-03T02:32:35;9.05;;;1.92;;
78406;SDS011;67692;51.074;-1.790;2023-04-03T02:35:02;8.32;;;2.22;;
78406;SDS011;67692;51.074;-1.790;2023-04-03T02:37:30;4.80;;;1.55;;
78406;SDS011;67692;51.074;-1.790;2023-04-03T02:39:56;5.47;;;1.98;;
78406;SDS011;67692;51.074;-1.790;2023-04-03T02:42:24;3.35;;;1.40;;
78406;SDS011;67692;51.074;-1.790;2023-04-03T02:44:51;6.05;;;1.60;;
78406;SDS011;67692;51.074;-1.790;2023-04-03T02:47:17;6.95;;;1.88;;
78406;SDS011;67692;51.074;-1.790;2023-04-03T02:49:44;8.55;;;1.35;;
78406;SDS011;67692;51.074;-1.790;2023-04-03T02:52:11;5.78;;;1.63;;
78406;SDS011;67692;51.074;-1.790;2023-04-03T02:54:37;5.78;;;2.20;;
78406;SDS011;67692;51.074;-1.790;2023-04-03T02:57:04;7.22;;;1.63;;
78406;SDS011;67692;51.074;-1.790;2023-04-03T02:59:34;7.43;;;1.63;;
78406;SDS011;67692;51.074;-1.790;2023-04-03T03:02:01;7.32;;;1.90;;
78406;SDS011;67692;51.074;-1.790;2023-04-03T03:04:27;10.23;;;2.30;;
78406;SDS011;67692;51.074;-1.790;2023-04-03T03:06:54;8.55;;;1.90;;
78406;SDS011;67692;51.074;-1.790;2023-04-03T03:09:20;5.63;;;2.00;;
78406;SDS011;67692;51.074;-1.790;2023-04-03T03:11:47;6.15;;;1.63;;
78406;SDS011;67692;51.074;-1.790;2023-04-03T03:14:14;10.73;;;1.75;;
78406;SDS011;67692;51.074;-1.790;2023-04-03T03:16:42;6.30;;;1.52;;
78406;SDS011;67692;51.074;-1.790;2023-04-03T03:19:08;6.80;;;2.03;;
78406;SDS011;67692;51.074;-1.790;2023-04-03T03:21:35;6.35;;;2.08;;
78406;SDS011;67692;51.074;-1.790;2023-04-03T03:24:02;4.88;;;1.65;;
78406;SDS011;67692;51.074;-1.790;2023-04-03T03:26:29;6.28;;;1.75;;
78406;SDS011;67692;51.074;-1.790;2023-04-03T03:28:55;8.63;;;2.35;;
78406;SDS011;67692;51.074;-1.790;2023-04-03T03:31:22;7.07;;;1.90;;
78406;SDS011;67692;51.074;-1.790;2023-04-03T03:33:50;8.02;;;2.20;;
78406;SDS011;67692;51.074;-1.790;2023-04-03T03:36:16;7.65;;;2.08;;
78406;SDS011;67692;51.074;-1.790;2023-04-03T03:38:43;4.93;;;1.75;;
78406;SDS011;67692;51.074;-1.790;2023-04-03T03:41:09;4.80;;;2.78;;
78406;SDS011;67692;51.074;-1.790;2023-04-03T03:43:36;4.82;;;1.77;;
78406;SDS011;67692;51.074;-1.790;2023-04-03T03:46:02;3.33;;;1.40;;
78406;SDS011;67692;51.074;-1.790;2023-04-03T03:48:29;5.55;;;1.50;;
78406;SDS011;67692;51.074;-1.790;2023-04-03T03:50:57;6.30;;;1.52;;
78406;SDS011;67692;51.074;-1.790;2023-04-03T03:53:23;4.65;;;1.52;;
78406;SDS011;67692;51.074;-1.790;2023-04-03T03:55:50;9.90;;;2.20;;
78406;SDS011;67692;51.074;-1.790;2023-04-03T03:58:17;8.90;;;1.92;;
78406;SDS011;67692;51.074;-1.790;2023-04-03T04:00:43;6.38;;;1.60;;
78406;SDS011;67692;51.074;-1.790;2023-04-03T04:03:10;8.15;;;2.00;;
78406;SDS011;67692;51.074;-1.790;2023-04-03T04:05:36;12.48;;;2.00;;
78406;SDS011;67692;51.074;-1.790;2023-04-03T04:08:05;9.07;;;1.60;;
78406;SDS011;67692;51.074;-1.790;2023-04-03T04:10:31;7.75;;;1.95;;
78406;SDS011;67692;51.074;-1.790;2023-04-03T04:12:58;7.00;;;1.48;;
78406;SDS011;67692;51.074;-1.790;2023-04-03T04:15:25;9.95;;;1.40;;
78406;SDS011;67692;51.074;-1.790;2023-04-03T04:17:52;6.32;;;1.45;;
78406;SDS011;67692;51.074;-1.790;2023-04-03T04:20:18;7.15;;;1.48;;
78406;SDS011;67692;51.074;-1.790;2023-04-03T04:22:45;10.48;;;1.63;;
78406;SDS011;67692;51.074;-1.790;2023-04-03T04:25:13;7.68;;;1.98;;
78406;SDS011;67692;51.074;-1.790;2023-04-03T04:27:40;7.28;;;1.70;;
78406;SDS011;67692;51.074;-1.790;2023-04-03T04:30:07;3.60;;;1.20;;
78406;SDS011;67692;51.074;-1.790;2023-04-03T04:32:34;7.10;;;1.75;;
78406;SDS011;67692;51.074;-1.790;2023-04-03T04:35:02;5.18;;;1.52;;
78406;SDS011;67692;51.074;-1.790;2023-04-03T04:37:29;3.55;;;1.23;;
78406;SDS011;67692;51.074;-1.790;2023-04-03T04:39:55;7.90;;;1.70;;
78406;SDS011;67692;51.074;-1.790;2023-04-03T04:42:23;11.60;;;1.90;;
78406;SDS011;67692;51.074;-1.790;2023-04-03T04:44:50;3.50;;;1.17;;
78406;SDS011;67692;51.074;-1.790;2023-04-03T04:47:17;5.97;;;1.58;;
78406;SDS011;67692;51.074;-1.790;2023-04-03T04:49:43;4.55;;;1.30;;
78406;SDS011;67692;51.074;-1.790;2023-04-03T04:52:12;5.03;;;1.50;;
78406;SDS011;67692;51.074;-1.790;2023-04-03T04:54:39;4.50;;;1.80;;
78406;SDS011;67692;51.074;-1.790;2023-04-03T04:57:05;4.85;;;1.50;;
78406;SDS011;67692;51.074;-1.790;2023-04-03T04:59:33;7.00;;;1.60;;
78406;SDS011;67692;51.074;-1.790;2023-04-03T05:02:00;6.38;;;1.50;;
78406;SDS011;67692;51.074;-1.790;2023-04-03T05:04:26;7.10;;;1.58;;
78406;SDS011;67692;51.074;-1.790;2023-04-03T05:06:53;7.18;;;1.60;;
78406;SDS011;67692;51.074;-1.790;2023-04-03T05:09:19;3.88;;;1.27;;
78406;SDS011;67692;51.074;-1.790;2023-04-03T05:11:46;10.85;;;2.10;;
78406;SDS011;67692;51.074;-1.790;2023-04-03T05:14:13;5.20;;;1.85;;
78406;SDS011;67692;51.074;-1.790;2023-04-03T05:16:41;7.40;;;1.30;;
78406;SDS011;67692;51.074;-1.790;2023-04-03T05:19:07;3.95;;;1.63;;
78406;SDS011;67692;51.074;-1.790;2023-04-03T05:21:34;4.10;;;1.25;;
78406;SDS011;67692;51.074;-1.790;2023-04-03T05:24:00;8.13;;;1.83;;
78406;SDS011;67692;51.074;-1.790;2023-04-03T05:26:28;5.38;;;1.38;;
78406;SDS011;67692;51.074;-1.790;2023-04-03T05:28:55;6.32;;;1.60;;
78406;SDS011;67692;51.074;-1.790;2023-04-03T05:31:22;8.63;;;1.33;;
78406;SDS011;67692;51.074;-1.790;2023-04-03T05:33:50;6.03;;;1.38;;
78406;SDS011;67692;51.074;-1.790;2023-04-03T05:36:17;5.03;;;1.25;;
78406;SDS011;67692;51.074;-1.790;2023-04-03T05:38:43;5.43;;;1.50;;
78406;SDS011;67692;51.074;-1.790;2023-04-03T05:41:10;4.65;;;1.55;;
78406;SDS011;67692;51.074;-1.790;2023-04-03T05:43:37;4.18;;;1.38;;
78406;SDS011;67692;51.074;-1.790;2023-04-03T05:46:04;4.47;;;1.38;;
78406;SDS011;67692;51.074;-1.790;2023-04-03T05:48:33;4.85;;;1.10;;
78406;SDS011;67692;51.074;-1.790;2023-04-03T05:51:01;4.80;;;1.13;;
78406;SDS011;67692;51.074;-1.790;2023-04-03T05:53:28;5.72;;;1.75;;
78406;SDS011;67692;51.074;-1.790;2023-04-03T05:55:57;7.00;;;1.77;;
78406;SDS011;67692;51.074;-1.790;2023-04-03T05:58:24;5.43;;;1.65;;
78406;SDS011;67692;51.074;-1.790;2023-04-03T06:00:50;6.60;;;1.50;;
78406;SDS011;67692;51.074;-1.790;2023-04-03T06:03:17;5.35;;;1.55;;
78406;SDS011;67692;51.074;-1.790;2023-04-03T06:05:44;10.32;;;1.73;;
78406;SDS011;67692;51.074;-1.790;2023-04-03T06:08:12;7.65;;;2.25;;
78406;SDS011;67692;51.074;-1.790;2023-04-03T06:10:39;5.75;;;1.42;;
78406;SDS011;67692;51.074;-1.790;2023-04-03T06:13:06;5.70;;;1.50;;
78406;SDS011;67692;51.074;-1.790;2023-04-03T06:15:33;3.95;;;1.10;;
78406;SDS011;67692;51.074;-1.790;2023-04-03T06:17:59;5.82;;;1.50;;
78406;SDS011;67692;51.074;-1.790;2023-04-03T06:20:26;4.82;;;1.58;;
78406;SDS011;67692;51.074;-1.790;2023-04-03T06:22:52;4.82;;;1.25;;
78406;SDS011;67692;51.074;-1.790;2023-04-03T06:25:20;8.65;;;1.45;;
78406;SDS011;67692;51.074;-1.790;2023-04-03T06:27:47;8.75;;;1.20;;
78406;SDS011;67692;51.074;-1.790;2023-04-03T06:30:14;6.47;;;1.80;;
78406;SDS011;67692;51.074;-1.790;2023-04-03T06:32:41;6.60;;;1.30;;
78406;SDS011;67692;51.074;-1.790;2023-04-03T06:35:08;15.82;;;1.58;;
78406;SDS011;67692;51.074;-1.790;2023-04-03T06:37:35;6.28;;;1.17;;
78406;SDS011;67692;51.074;-1.790;2023-04-03T06:40:02;7.50;;;1.50;;
78406;SDS011;67692;51.074;-1.790;2023-04-03T06:42:31;5.25;;;1.30;;
78406;SDS011;67692;51.074;-1.790;2023-04-03T06:44:58;12.18;;;1.73;;
78406;SDS011;67692;51.074;-1.790;2023-04-03T06:47:25;8.95;;;1.58;;
78406;SDS011;67692;51.074;-1.790;2023-04-03T06:49:52;5.32;;;1.70;;
78406;SDS011;67692;51.074;-1.790;2023-04-03T06:52:18;10.75;;;2.83;;
78406;SDS011;67692;51.074;-1.790;2023-04-03T06:54:45;13.07;;;1.75;;
78406;SDS011;67692;51.074;-1.790;2023-04-03T06:57:12;4.93;;;1.60;;
78406;SDS011;67692;51.074;-1.790;2023-04-03T06:59:41;3.08;;;1.13;;
78406;SDS011;67692;51.074;-1.790;2023-04-03T07:02:09;3.95;;;0.90;;
78406;SDS011;67692;51.074;-1.790;2023-04-03T07:04:37;3.70;;;1.00;;
78406;SDS011;67692;51.074;-1.790;2023-04-03T07:07:04;4.32;;;1.25;;
78406;SDS011;67692;51.074;-1.790;2023-04-03T07:09:31;5.03;;;1.05;;
78406;SDS011;67692;51.074;-1.790;2023-04-03T07:11:57;7.05;;;1.58;;
78406;SDS011;67692;51.074;-1.790;2023-04-03T07:14:24;5.00;;;1.10;;
78406;SDS011;67692;51.074;-1.790;2023-04-03T07:16:52;6.22;;;0.88;;
78406;SDS011;67692;51.074;-1.790;2023-04-03T07:19:18;5.35;;;1.10;;
78406;SDS011;67692;51.074;-1.790;2023-04-03T07:21:46;5.53;;;1.27;;
78406;SDS011;67692;51.074;-1.790;2023-04-03T07:24:13;4.50;;;1.10;;
78406;SDS011;67692;51.074;-1.790;2023-04-03T07:26:39;7.60;;;1.40;;
78406;SDS011;67692;51.074;-1.790;2023-04-03T07:29:06;4.30;;;1.08;;
78406;SDS011;67692;51.074;-1.790;2023-04-03T07:31:33;6.85;;;1.25;;
78406;SDS011;67692;51.074;-1.790;2023-04-03T07:34:01;9.52;;;1.33;;
78406;SDS011;67692;51.074;-1.790;2023-04-03T07:36:28;8.85;;;1.30;;
78406;SDS011;67692;51.074;-1.790;2023-04-03T07:38:58;9.88;;;1.17;;
78406;SDS011;67692;51.074;-1.790;2023-04-03T07:41:24;9.63;;;1.33;;
78406;SDS011;67692;51.074;-1.790;2023-04-03T07:43:51;6.78;;;1.13;;
78406;SDS011;67692;51.074;-1.790;2023-04-03T07:46:18;5.45;;;1.35;;
78406;SDS011;67692;51.074;-1.790;2023-04-03T07:48:45;4.90;;;1.45;;
78406;SDS011;67692;51.074;-1.790;2023-04-03T07:51:13;3.40;;;1.02;;
78406;SDS011;67692;51.074;-1.790;2023-04-03T07:53:41;3.72;;;1.00;;
78406;SDS011;67692;51.074;-1.790;2023-04-03T07:56:08;5.20;;;1.08;;
78406;SDS011;67692;51.074;-1.790;2023-04-03T07:58:35;7.57;;;1.15;;
78406;SDS011;67692;51.074;-1.790;2023-04-03T08:01:03;5.75;;;1.33;;
78406;SDS011;67692;51.074;-1.790;2023-04-03T08:03:31;6.80;;;1.08;;
78406;SDS011;67692;51.074;-1.790;2023-04-03T08:06:01;5.20;;;1.25;;
78406;SDS011;67692;51.074;-1.790;2023-04-03T08:08:31;8.77;;;1.30;;
78406;SDS011;67692;51.074;-1.790;2023-04-03T08:10:58;6.03;;;1.13;;
78406;SDS011;67692;51.074;-1.790;2023-04-03T08:13:25;6.80;;;1.13;;
78406;SDS011;67692;51.074;-1.790;2023-04-03T08:15:53;10.98;;;2.38;;
78406;SDS011;67692;51.074;-1.790;2023-04-03T08:18:19;3.72;;;1.30;;
78406;SDS011;67692;51.074;-1.790;2023-04-03T08:20:49;11.65;;;1.63;;
78406;SDS011;67692;51.074;-1.790;2023-04-03T08:23:16;8.88;;;1.27;;
78406;SDS011;67692;51.074;-1.790;2023-04-03T08:25:44;8.10;;;1.60;;
78406;SDS011;67692;51.074;-1.790;2023-04-03T08:28:11;10.35;;;1.58;;
78406;SDS011;67692;51.074;-1.790;2023-04-03T08:30:38;6.32;;;1.75;;
78406;SDS011;67692;51.074;-1.790;2023-04-03T08:33:05;5.57;;;1.60;;
78406;SDS011;67692;51.074;-1.790;2023-04-03T08:35:33;8.98;;;2.03;;
78406;SDS011;67692;51.074;-1.790;2023-04-03T08:38:03;5.07;;;1.20;;
78406;SDS011;67692;51.074;-1.790;2023-04-03T08:40:30;9.40;;;1.83;;
78406;SDS011;67692;51.074;-1.790;2023-04-03T08:43:01;9.23;;;1.70;;
78406;SDS011;67692;51.074;-1.790;2023-04-03T08:45:42;8.88;;;2.30;;
78406;SDS011;67692;51.074;-1.790;2023-04-03T08:48:13;8.15;;;2.10;;
78406;SDS011;67692;51.074;-1.790;2023-04-03T08:50:45;10.73;;;1.80;;
78406;SDS011;67692;51.074;-1.790;2023-04-03T08:53:15;10.88;;;2.63;;
78406;SDS011;67692;51.074;-1.790;2023-04-03T08:55:45;5.97;;;1.98;;
78406;SDS011;67692;51.074;-1.790;2023-04-03T08:58:16;11.93;;;1.92;;
78406;SDS011;67692;51.074;-1.790;2023-04-03T09:00:45;11.00;;;1.65;;
78406;SDS011;67692;51.074;-1.790;2023-04-03T09:03:15;9.23;;;2.80;;
78406;SDS011;67692;51.074;-1.790;2023-04-03T09:05:45;8.60;;;2.85;;
78406;SDS011;67692;51.074;-1.790;2023-04-03T09:08:18;5.47;;;2.05;;
78406;SDS011;67692;51.074;-1.790;2023-04-03T09:10:51;11.07;;;2.38;;
78406;SDS011;67692;51.074;-1.790;2023-04-03T09:13:29;13.35;;;2.67;;
78406;SDS011;67692;51.074;-1.790;2023-04-03T09:15:59;5.60;;;2.08;;
78406;SDS011;67692;51.074;-1.790;2023-04-03T09:18:32;6.30;;;2.00;;
78406;SDS011;67692;51.074;-1.790;2023-04-03T09:21:12;9.60;;;2.58;;
78406;SDS011;67692;51.074;-1.790;2023-04-03T09:23:44;8.77;;;2.55;;
78406;SDS011;67692;51.074;-1.790;2023-04-03T09:26:14;8.77;;;3.15;;
78406;SDS011;67692;51.074;-1.790;2023-04-03T09:28:45;7.78;;;2.42;;
78406;SDS011;67692;51.074;-1.790;2023-04-03T09:31:16;7.43;;;2.65;;
78406;SDS011;67692;51.074;-1.790;2023-04-03T09:33:46;8.73;;;2.92;;
78406;SDS011;67692;51.074;-1.790;2023-04-03T09:39:04;10.85;;;3.13;;
78406;SDS011;67692;51.074;-1.790;2023-04-03T09:41:31;6.95;;;2.92;;
78406;SDS011;67692;51.074;-1.790;2023-04-03T09:43:59;12.25;;;3.42;;
78406;SDS011;67692;51.074;-1.790;2023-04-03T09:46:29;9.60;;;3.15;;
78406;SDS011;67692;51.074;-1.790;2023-04-03T09:48:57;6.65;;;3.50;;
78406;SDS011;67692;51.074;-1.790;2023-04-03T09:51:26;11.18;;;4.03;;
78406;SDS011;67692;51.074;-1.790;2023-04-03T09:53:54;10.23;;;3.53;;
78406;SDS011;67692;51.074;-1.790;2023-04-03T09:56:22;10.52;;;4.05;;
78406;SDS011;67692;51.074;-1.790;2023-04-03T10:01:34;8.75;;;3.92;;
78406;SDS011;67692;51.074;-1.790;2023-04-03T10:04:07;11.70;;;4.50;;
78406;SDS011;67692;51.074;-1.790;2023-04-03T10:06:37;15.27;;;5.75;;
78406;SDS011;67692;51.074;-1.790;2023-04-03T10:09:15;10.60;;;4.97;;
78406;SDS011;67692;51.074;-1.790;2023-04-03T10:11:58;9.18;;;4.43;;
78406;SDS011;67692;51.074;-1.790;2023-04-03T10:14:30;9.32;;;3.90;;
78406;SDS011;67692;51.074;-1.790;2023-04-03T10:17:01;7.80;;;4.22;;
78406;SDS011;67692;51.074;-1.790;2023-04-03T10:19:39;9.48;;;3.53;;
78406;SDS011;67692;51.074;-1.790;2023-04-03T10:22:13;6.50;;;3.13;;
78406;SDS011;67692;51.074;-1.790;2023-04-03T10:24:47;7.78;;;3.60;;
78406;SDS011;67692;51.074;-1.790;2023-04-03T10:27:21;8.90;;;2.80;;
78406;SDS011;67692;51.074;-1.790;2023-04-03T10:29:58;9.70;;;3.47;;
78406;SDS011;67692;51.074;-1.790;2023-04-03T10:32:44;10.27;;;2.90;;
78406;SDS011;67692;51.074;-1.790;2023-04-03T10:35:18;8.35;;;3.33;;
78406;SDS011;67692;51.074;-1.790;2023-04-03T10:37:55;12.40;;;2.95;;
78406;SDS011;67692;51.074;-1.790;2023-04-03T10:40:30;7.40;;;3.20;;
78406;SDS011;67692;51.074;-1.790;2023-04-03T10:43:06;8.90;;;3.47;;
78406;SDS011;67692;51.074;-1.790;2023-04-03T10:45:46;8.10;;;3.22;;
78406;SDS011;67692;51.074;-1.790;2023-04-03T10:48:21;9.07;;;3.08;;
78406;SDS011;67692;51.074;-1.790;2023-04-03T10:51:00;7.38;;;3.22;;
78406;SDS011;67692;51.074;-1.790;2023-04-03T10:53:36;10.73;;;4.22;;
78406;SDS011;67692;51.074;-1.790;2023-04-03T10:56:10;13.70;;;3.70;;
78406;SDS011;67692;51.074;-1.790;2023-04-03T10:58:43;6.15;;;3.67;;
78406;SDS011;67692;51.074;-1.790;2023-04-03T11:01:11;12.63;;;3.72;;
78406;SDS011;67692;51.074;-1.790;2023-04-03T11:03:44;9.50;;;3.70;;
78406;SDS011;67692;51.074;-1.790;2023-04-03T11:06:14;9.02;;;3.30;;
78406;SDS011;67692;51.074;-1.790;2023-04-03T11:08:43;13.60;;;3.90;;
78406;SDS011;67692;51.074;-1.790;2023-04-03T11:11:14;10.63;;;3.80;;
78406;SDS011;67692;51.074;-1.790;2023-04-03T11:13:44;11.70;;;3.92;;
78406;SDS011;67692;51.074;-1.790;2023-04-03T11:16:17;8.55;;;3.88;;
78406;SDS011;67692;51.074;-1.790;2023-04-03T11:18:49;8.00;;;3.80;;
78406;SDS011;67692;51.074;-1.790;2023-04-03T11:21:21;9.60;;;4.03;;
78406;SDS011;67692;51.074;-1.790;2023-04-03T11:23:52;11.13;;;4.03;;
78406;SDS011;67692;51.074;-1.790;2023-04-03T11:26:24;8.80;;;3.72;;
78406;SDS011;67692;51.074;-1.790;2023-04-03T11:28:56;6.68;;;4.00;;
78406;SDS011;67692;51.074;-1.790;2023-04-03T11:31:30;11.38;;;4.05;;
78406;SDS011;67692;51.074;-1.790;2023-04-03T11:34:13;9.27;;;3.90;;
78406;SDS011;67692;51.074;-1.790;2023-04-03T11:36:49;9.63;;;3.90;;
78406;SDS011;67692;51.074;-1.790;2023-04-03T11:39:21;6.38;;;3.83;;
78406;SDS011;67692;51.074;-1.790;2023-04-03T11:41:50;8.25;;;3.60;;
78406;SDS011;67692;51.074;-1.790;2023-04-03T11:44:28;9.60;;;3.90;;
78406;SDS011;67692;51.074;-1.790;2023-04-03T11:46:58;7.13;;;3.70;;
78406;SDS011;67692;51.074;-1.790;2023-04-03T11:55:41;6.00;;;2.88;;
78406;SDS011;67692;51.074;-1.790;2023-04-03T11:58:18;9.85;;;3.92;;
78406;SDS011;67692;51.074;-1.790;2023-04-03T12:00:53;12.85;;;4.70;;
78406;SDS011;67692;51.074;-1.790;2023-04-03T12:09:31;7.25;;;3.88;;
78406;SDS011;67692;51.074;-1.790;2023-04-03T12:12:01;11.30;;;3.90;;
78406;SDS011;67692;51.074;-1.790;2023-04-03T12:14:50;12.48;;;4.43;;
78406;SDS011;67692;51.074;-1.790;2023-04-03T12:17:20;8.57;;;3.78;;
78406;SDS011;67692;51.074;-1.790;2023-04-03T12:19:51;8.65;;;3.95;;
78406;SDS011;67692;51.074;-1.790;2023-04-03T12:22:19;6.78;;;3.50;;
78406;SDS011;67692;51.074;-1.790;2023-04-03T12:24:48;10.32;;;4.07;;
78406;SDS011;67692;51.074;-1.790;2023-04-03T12:27:30;9.63;;;3.85;;
78406;SDS011;67692;51.074;-1.790;2023-04-03T12:32:54;5.03;;;3.20;;
78406;SDS011;67692;51.074;-1.790;2023-04-03T12:35:31;8.75;;;3.63;;
78406;SDS011;67692;51.074;-1.790;2023-04-03T12:38:19;8.48;;;3.35;;
78406;SDS011;67692;51.074;-1.790;2023-04-03T12:41:21;8.52;;;3.20;;
78406;SDS011;67692;51.074;-1.790;2023-04-03T12:43:59;5.05;;;2.97;;
78406;SDS011;67692;51.074;-1.790;2023-04-03T12:49:10;9.93;;;3.53;;
78406;SDS011;67692;51.074;-1.790;2023-04-03T12:51:44;8.27;;;3.35;;
78406;SDS011;67692;51.074;-1.790;2023-04-03T12:54:14;9.82;;;3.33;;
78406;SDS011;67692;51.074;-1.790;2023-04-03T12:56:44;8.95;;;3.47;;
78406;SDS011;67692;51.074;-1.790;2023-04-03T12:59:15;7.10;;;3.72;;
78406;SDS011;67692;51.074;-1.790;2023-04-03T13:01:43;7.47;;;3.85;;
78406;SDS011;67692;51.074;-1.790;2023-04-03T13:04:10;9.43;;;3.33;;
78406;SDS011;67692;51.074;-1.790;2023-04-03T13:06:39;9.40;;;3.83;;
78406;SDS011;67692;51.074;-1.790;2023-04-03T13:09:14;9.02;;;4.10;;
78406;SDS011;67692;51.074;-1.790;2023-04-03T13:11:47;7.60;;;3.03;;
78406;SDS011;67692;51.074;-1.790;2023-04-03T13:14:17;7.18;;;3.50;;
78406;SDS011;67692;51.074;-1.790;2023-04-03T13:16:52;8.65;;;3.92;;
78406;SDS011;67692;51.074;-1.790;2023-04-03T13:19:19;8.73;;;4.05;;
78406;SDS011;67692;51.074;-1.790;2023-04-03T13:21:46;7.25;;;3.63;;
78406;SDS011;67692;51.074;-1.790;2023-04-03T13:24:13;9.32;;;4.65;;
78406;SDS011;67692;51.074;-1.790;2023-04-03T13:26:41;14.38;;;4.03;;
78406;SDS011;67692;51.074;-1.790;2023-04-03T13:29:17;10.35;;;3.83;;
78406;SDS011;67692;51.074;-1.790;2023-04-03T13:31:47;8.07;;;3.58;;
78406;SDS011;67692;51.074;-1.790;2023-04-03T13:34:19;8.35;;;3.72;;
78406;SDS011;67692;51.074;-1.790;2023-04-03T13:36:54;8.43;;;4.10;;
78406;SDS011;67692;51.074;-1.790;2023-04-03T13:39:23;7.65;;;3.85;;
78406;SDS011;67692;51.074;-1.790;2023-04-03T13:41:53;10.60;;;4.25;;
78406;SDS011;67692;51.074;-1.790;2023-04-03T13:44:30;11.73;;;4.20;;
78406;SDS011;67692;51.074;-1.790;2023-04-03T13:47:00;7.75;;;3.63;;
78406;SDS011;67692;51.074;-1.790;2023-04-03T13:49:40;11.27;;;4.13;;
78406;SDS011;67692;51.074;-1.790;2023-04-03T13:52:21;9.43;;;4.40;;
78406;SDS011;67692;51.074;-1.790;2023-04-03T13:54:51;8.77;;;4.07;;
78406;SDS011;67692;51.074;-1.790;2023-04-03T13:57:22;7.20;;;4.18;;
78406;SDS011;67692;51.074;-1.790;2023-04-03T13:59:49;7.75;;;3.58;;
78406;SDS011;67692;51.074;-1.790;2023-04-03T14:02:17;11.10;;;3.70;;
78406;SDS011;67692;51.074;-1.790;2023-04-03T14:04:51;6.13;;;3.60;;
78406;SDS011;67692;51.074;-1.790;2023-04-03T14:07:23;8.57;;;3.53;;
78406;SDS011;67692;51.074;-1.790;2023-04-03T14:09:51;7.38;;;3.42;;
78406;SDS011;67692;51.074;-1.790;2023-04-03T14:12:21;8.48;;;4.07;;
78406;SDS011;67692;51.074;-1.790;2023-04-03T14:14:53;9.23;;;4.07;;
78406;SDS011;67692;51.074;-1.790;2023-04-03T14:17:22;7.93;;;3.30;;
78406;SDS011;67692;51.074;-1.790;2023-04-03T14:19:52;10.82;;;3.95;;
78406;SDS011;67692;51.074;-1.790;2023-04-03T14:22:21;6.80;;;3.63;;
78406;SDS011;67692;51.074;-1.790;2023-04-03T14:24:49;8.80;;;3.63;;
78406;SDS011;67692;51.074;-1.790;2023-04-03T14:27:17;6.97;;;3.75;;
78406;SDS011;67692;51.074;-1.790;2023-04-03T14:29:48;10.48;;;3.83;;
78406;SDS011;67692;51.074;-1.790;2023-04-03T14:32:16;9.93;;;4.07;;
78406;SDS011;67692;51.074;-1.790;2023-04-03T14:34:45;10.75;;;3.85;;
78406;SDS011;67692;51.074;-1.790;2023-04-03T14:37:13;8.00;;;3.70;;
78406;SDS011;67692;51.074;-1.790;2023-04-03T14:39:43;6.93;;;3.28;;
78406;SDS011;67692;51.074;-1.790;2023-04-03T14:42:17;7.03;;;2.72;;
78406;SDS011;67692;51.074;-1.790;2023-04-03T14:44:45;7.45;;;3.03;;
78406;SDS011;67692;51.074;-1.790;2023-04-03T14:47:13;6.07;;;2.85;;
78406;SDS011;67692;51.074;-1.790;2023-04-03T14:49:42;8.35;;;2.95;;
78406;SDS011;67692;51.074;-1.790;2023-04-03T14:52:13;6.45;;;3.47;;
78406;SDS011;67692;51.074;-1.790;2023-04-03T14:54:45;8.32;;;3.20;;
78406;SDS011;67692;51.074;-1.790;2023-04-03T14:57:12;10.18;;;2.67;;
78406;SDS011;67692;51.074;-1.790;2023-04-03T14:59:41;8.88;;;3.08;;
78406;SDS011;67692;51.074;-1.790;2023-04-03T15:02:11;9.48;;;3.67;;
78406;SDS011;67692;51.074;-1.790;2023-04-03T15:04:54;8.98;;;3.35;;
78406;SDS011;67692;51.074;-1.790;2023-04-03T15:07:21;7.20;;;3.13;;
78406;SDS011;67692;51.074;-1.790;2023-04-03T15:09:48;7.97;;;3.85;;
78406;SDS011;67692;51.074;-1.790;2023-04-03T15:12:15;7.85;;;2.95;;